sensor_id;sensor_type;location;lat;lon;timestamp;P1;durP1;ratioP1;P2;durP2;ratioP2
21802;SDS011;18591;47.080;22.214;2022-12-07T00:02:01;22.17;;;15.63;;
21802;SDS011;18591;47.080;22.214;2022-12-07T00:04:04;25.33;;;16.57;;
21802;SDS011;18591;47.080;22.214;2022-12-07T00:06:07;26.07;;;17.43;;
21802;SDS011;18591;47.080;22.214;2022-12-07T00:08:11;25.13;;;16.07;;
21802;SDS011;18591;47.080;22.214;2022-12-07T00:10:13;26.93;;;18.37;;
21802;SDS011;18591;47.080;22.214;2022-12-07T00:12:15;24.37;;;16.30;;
21802;SDS011;18591;47.080;22.214;2022-12-07T00:14:18;27.33;;;15.90;;
21802;SDS011;18591;47.080;22.214;2022-12-07T00:16:25;24.13;;;16.43;;
21802;SDS011;18591;47.080;22.214;2022-12-07T00:18:28;22.67;;;15.73;;
21802;SDS011;18591;47.080;22.214;2022-12-07T00:20:30;23.20;;;15.23;;
21802;SDS011;18591;47.080;22.214;2022-12-07T00:22:32;25.20;;;16.40;;
21802;SDS011;18591;47.080;22.214;2022-12-07T00:24:34;19.43;;;14.17;;
21802;SDS011;18591;47.080;22.214;2022-12-07T00:26:37;21.93;;;15.60;;
21802;SDS011;18591;47.080;22.214;2022-12-07T00:28:41;21.50;;;14.90;;
21802;SDS011;18591;47.080;22.214;2022-12-07T00:30:47;21.63;;;14.97;;
21802;SDS011;18591;47.080;22.214;2022-12-07T00:32:49;19.67;;;14.37;;
21802;SDS011;18591;47.080;22.214;2022-12-07T00:34:51;23.00;;;14.67;;
21802;SDS011;18591;47.080;22.214;2022-12-07T00:36:53;66.47;;;16.97;;
21802;SDS011;18591;47.080;22.214;2022-12-07T00:38:57;32.73;;;15.43;;
21802;SDS011;18591;47.080;22.214;2022-12-07T00:41:02;23.00;;;15.10;;
21802;SDS011;18591;47.080;22.214;2022-12-07T00:43:06;21.70;;;15.63;;
21802;SDS011;18591;47.080;22.214;2022-12-07T00:45:08;27.23;;;17.87;;
21802;SDS011;18591;47.080;22.214;2022-12-07T00:47:10;36.37;;;23.80;;
21802;SDS011;18591;47.080;22.214;2022-12-07T00:49:14;42.93;;;26.67;;
21802;SDS011;18591;47.080;22.214;2022-12-07T00:51:17;66.47;;;36.37;;
21802;SDS011;18591;47.080;22.214;2022-12-07T00:53:20;72.20;;;38.13;;
21802;SDS011;18591;47.080;22.214;2022-12-07T00:55:22;63.83;;;34.30;;
21802;SDS011;18591;47.080;22.214;2022-12-07T00:57:24;57.17;;;31.10;;
21802;SDS011;18591;47.080;22.214;2022-12-07T00:59:26;47.60;;;27.33;;
21802;SDS011;18591;47.080;22.214;2022-12-07T01:01:30;46.47;;;28.33;;
21802;SDS011;18591;47.080;22.214;2022-12-07T01:03:34;39.67;;;23.47;;
21802;SDS011;18591;47.080;22.214;2022-12-07T01:05:36;33.73;;;22.37;;
21802;SDS011;18591;47.080;22.214;2022-12-07T01:07:39;34.83;;;21.73;;
21802;SDS011;18591;47.080;22.214;2022-12-07T01:09:41;55.37;;;32.33;;
21802;SDS011;18591;47.080;22.214;2022-12-07T01:11:43;93.87;;;52.27;;
21802;SDS011;18591;47.080;22.214;2022-12-07T01:13:45;70.17;;;43.17;;
21802;SDS011;18591;47.080;22.214;2022-12-07T01:15:47;51.33;;;32.43;;
21802;SDS011;18591;47.080;22.214;2022-12-07T01:17:49;38.13;;;24.20;;
21802;SDS011;18591;47.080;22.214;2022-12-07T01:19:52;27.97;;;19.13;;
21802;SDS011;18591;47.080;22.214;2022-12-07T01:21:54;26.10;;;17.00;;
21802;SDS011;18591;47.080;22.214;2022-12-07T01:23:57;28.60;;;17.43;;
21802;SDS011;18591;47.080;22.214;2022-12-07T01:26:01;21.37;;;15.90;;
21802;SDS011;18591;47.080;22.214;2022-12-07T01:28:05;22.40;;;15.70;;
21802;SDS011;18591;47.080;22.214;2022-12-07T01:30:07;19.70;;;13.73;;
21802;SDS011;18591;47.080;22.214;2022-12-07T01:32:09;24.83;;;16.53;;
21802;SDS011;18591;47.080;22.214;2022-12-07T01:34:12;23.17;;;15.80;;
21802;SDS011;18591;47.080;22.214;2022-12-07T01:36:15;40.13;;;24.20;;
21802;SDS011;18591;47.080;22.214;2022-12-07T01:38:24;52.27;;;31.77;;
21802;SDS011;18591;47.080;22.214;2022-12-07T01:40:26;46.17;;;28.80;;
21802;SDS011;18591;47.080;22.214;2022-12-07T01:42:28;34.17;;;22.37;;
21802;SDS011;18591;47.080;22.214;2022-12-07T01:45:14;41.40;;;25.40;;
21802;SDS011;18591;47.080;22.214;2022-12-07T01:47:13;35.03;;;24.27;;
21802;SDS011;18591;47.080;22.214;2022-12-07T01:49:17;33.00;;;20.63;;
21802;SDS011;18591;47.080;22.214;2022-12-07T01:51:24;28.63;;;19.13;;
21802;SDS011;18591;47.080;22.214;2022-12-07T01:53:28;38.17;;;24.03;;
21802;SDS011;18591;47.080;22.214;2022-12-07T01:55:32;33.23;;;21.70;;
21802;SDS011;18591;47.080;22.214;2022-12-07T01:57:37;26.83;;;18.73;;
21802;SDS011;18591;47.080;22.214;2022-12-07T01:59:52;26.83;;;16.27;;
21802;SDS011;18591;47.080;22.214;2022-12-07T02:01:56;23.73;;;16.37;;
21802;SDS011;18591;47.080;22.214;2022-12-07T02:03:59;32.03;;;19.13;;
21802;SDS011;18591;47.080;22.214;2022-12-07T02:06:01;41.63;;;23.73;;
21802;SDS011;18591;47.080;22.214;2022-12-07T02:08:04;50.03;;;27.40;;
21802;SDS011;18591;47.080;22.214;2022-12-07T02:10:16;42.77;;;23.87;;
21802;SDS011;18591;47.080;22.214;2022-12-07T02:12:24;31.33;;;19.23;;
21802;SDS011;18591;47.080;22.214;2022-12-07T02:14:27;25.57;;;16.23;;
21802;SDS011;18591;47.080;22.214;2022-12-07T02:28:26;71.27;;;40.23;;
21802;SDS011;18591;47.080;22.214;2022-12-07T02:30:35;42.03;;;25.90;;
21802;SDS011;18591;47.080;22.214;2022-12-07T02:33:04;95.13;;;55.53;;
21802;SDS011;18591;47.080;22.214;2022-12-07T02:35:17;67.87;;;41.50;;
21802;SDS011;18591;47.080;22.214;2022-12-07T02:39:55;42.70;;;27.00;;
21802;SDS011;18591;47.080;22.214;2022-12-07T02:42:02;33.33;;;21.47;;
21802;SDS011;18591;47.080;22.214;2022-12-07T02:44:14;24.60;;;17.90;;
21802;SDS011;18591;47.080;22.214;2022-12-07T02:46:25;26.60;;;16.83;;
21802;SDS011;18591;47.080;22.214;2022-12-07T02:48:31;42.63;;;26.40;;
21802;SDS011;18591;47.080;22.214;2022-12-07T02:50:35;35.47;;;24.40;;
21802;SDS011;18591;47.080;22.214;2022-12-07T02:52:37;39.03;;;25.80;;
21802;SDS011;18591;47.080;22.214;2022-12-07T02:54:39;30.87;;;20.07;;
21802;SDS011;18591;47.080;22.214;2022-12-07T03:01:14;24.83;;;16.47;;
21802;SDS011;18591;47.080;22.214;2022-12-07T03:03:29;23.80;;;15.57;;
21802;SDS011;18591;47.080;22.214;2022-12-07T03:07:48;21.87;;;13.87;;
21802;SDS011;18591;47.080;22.214;2022-12-07T03:12:49;25.57;;;17.10;;
21802;SDS011;18591;47.080;22.214;2022-12-07T03:15:03;20.47;;;14.57;;
21802;SDS011;18591;47.080;22.214;2022-12-07T03:17:16;25.37;;;14.47;;
21802;SDS011;18591;47.080;22.214;2022-12-07T03:19:23;26.13;;;17.77;;
21802;SDS011;18591;47.080;22.214;2022-12-07T03:21:32;20.53;;;13.57;;
21802;SDS011;18591;47.080;22.214;2022-12-07T03:23:38;25.33;;;16.07;;
21802;SDS011;18591;47.080;22.214;2022-12-07T03:25:45;21.90;;;15.93;;
21802;SDS011;18591;47.080;22.214;2022-12-07T03:27:58;21.13;;;14.60;;
21802;SDS011;18591;47.080;22.214;2022-12-07T03:30:07;22.27;;;14.80;;
21802;SDS011;18591;47.080;22.214;2022-12-07T03:32:16;20.40;;;13.17;;
21802;SDS011;18591;47.080;22.214;2022-12-07T03:34:39;18.17;;;13.10;;
21802;SDS011;18591;47.080;22.214;2022-12-07T03:36:50;29.27;;;19.80;;
21802;SDS011;18591;47.080;22.214;2022-12-07T03:51:21;43.80;;;22.07;;
21802;SDS011;18591;47.080;22.214;2022-12-07T03:53:39;40.03;;;21.53;;
21802;SDS011;18591;47.080;22.214;2022-12-07T03:55:49;46.17;;;22.90;;
21802;SDS011;18591;47.080;22.214;2022-12-07T03:57:54;46.80;;;25.07;;
21802;SDS011;18591;47.080;22.214;2022-12-07T03:59:59;55.03;;;26.93;;
21802;SDS011;18591;47.080;22.214;2022-12-07T04:02:12;50.80;;;25.60;;
21802;SDS011;18591;47.080;22.214;2022-12-07T04:04:16;46.40;;;24.23;;
21802;SDS011;18591;47.080;22.214;2022-12-07T04:06:19;51.37;;;26.43;;
21802;SDS011;18591;47.080;22.214;2022-12-07T04:08:21;43.63;;;23.20;;
21802;SDS011;18591;47.080;22.214;2022-12-07T04:10:23;59.07;;;30.27;;
21802;SDS011;18591;47.080;22.214;2022-12-07T04:12:25;52.63;;;29.87;;
21802;SDS011;18591;47.080;22.214;2022-12-07T04:14:27;51.67;;;28.33;;
21802;SDS011;18591;47.080;22.214;2022-12-07T04:16:29;53.23;;;28.60;;
21802;SDS011;18591;47.080;22.214;2022-12-07T04:18:31;50.10;;;26.73;;
21802;SDS011;18591;47.080;22.214;2022-12-07T04:20:33;43.30;;;23.67;;
21802;SDS011;18591;47.080;22.214;2022-12-07T04:22:35;48.93;;;27.13;;
21802;SDS011;18591;47.080;22.214;2022-12-07T04:24:37;54.40;;;29.93;;
21802;SDS011;18591;47.080;22.214;2022-12-07T04:26:41;55.33;;;31.13;;
21802;SDS011;18591;47.080;22.214;2022-12-07T04:28:45;50.40;;;28.60;;
21802;SDS011;18591;47.080;22.214;2022-12-07T04:30:47;43.73;;;24.87;;
21802;SDS011;18591;47.080;22.214;2022-12-07T04:32:49;51.50;;;28.97;;
21802;SDS011;18591;47.080;22.214;2022-12-07T04:34:51;47.13;;;26.80;;
21802;SDS011;18591;47.080;22.214;2022-12-07T04:36:56;41.30;;;23.97;;
21802;SDS011;18591;47.080;22.214;2022-12-07T04:38:58;47.43;;;27.77;;
21802;SDS011;18591;47.080;22.214;2022-12-07T04:41:04;47.40;;;28.60;;
21802;SDS011;18591;47.080;22.214;2022-12-07T04:43:07;53.97;;;34.20;;
21802;SDS011;18591;47.080;22.214;2022-12-07T04:45:09;47.53;;;28.77;;
21802;SDS011;18591;47.080;22.214;2022-12-07T04:47:11;40.23;;;23.33;;
21802;SDS011;18591;47.080;22.214;2022-12-07T04:49:14;68.90;;;42.67;;
21802;SDS011;18591;47.080;22.214;2022-12-07T04:51:18;83.23;;;54.20;;
21802;SDS011;18591;47.080;22.214;2022-12-07T04:53:22;74.63;;;47.10;;
21802;SDS011;18591;47.080;22.214;2022-12-07T04:55:25;50.57;;;34.37;;
21802;SDS011;18591;47.080;22.214;2022-12-07T04:57:26;48.13;;;30.43;;
21802;SDS011;18591;47.080;22.214;2022-12-07T04:59:28;42.57;;;27.87;;
21802;SDS011;18591;47.080;22.214;2022-12-07T05:07:43;41.63;;;26.63;;
21802;SDS011;18591;47.080;22.214;2022-12-07T05:09:45;32.60;;;21.77;;
21802;SDS011;18591;47.080;22.214;2022-12-07T05:11:47;32.83;;;20.63;;
21802;SDS011;18591;47.080;22.214;2022-12-07T05:13:49;34.37;;;20.27;;
21802;SDS011;18591;47.080;22.214;2022-12-07T05:15:51;53.97;;;32.17;;
21802;SDS011;18591;47.080;22.214;2022-12-07T05:17:53;37.07;;;23.23;;
21802;SDS011;18591;47.080;22.214;2022-12-07T05:22:32;70.20;;;39.97;;
21802;SDS011;18591;47.080;22.214;2022-12-07T05:24:34;90.70;;;53.80;;
21802;SDS011;18591;47.080;22.214;2022-12-07T05:26:37;83.53;;;51.43;;
21802;SDS011;18591;47.080;22.214;2022-12-07T05:28:39;59.30;;;34.70;;
21802;SDS011;18591;47.080;22.214;2022-12-07T05:30:41;41.37;;;26.23;;
21802;SDS011;18591;47.080;22.214;2022-12-07T05:32:43;49.10;;;29.43;;
21802;SDS011;18591;47.080;22.214;2022-12-07T05:34:45;43.30;;;26.30;;
21802;SDS011;18591;47.080;22.214;2022-12-07T05:36:47;40.97;;;23.87;;
21802;SDS011;18591;47.080;22.214;2022-12-07T05:38:50;32.70;;;20.03;;
21802;SDS011;18591;47.080;22.214;2022-12-07T05:40:56;32.17;;;20.40;;
21802;SDS011;18591;47.080;22.214;2022-12-07T05:43:02;33.73;;;19.73;;
21802;SDS011;18591;47.080;22.214;2022-12-07T05:45:05;36.37;;;21.83;;
21802;SDS011;18591;47.080;22.214;2022-12-07T05:47:09;37.73;;;21.63;;
21802;SDS011;18591;47.080;22.214;2022-12-07T05:49:11;35.60;;;19.87;;
21802;SDS011;18591;47.080;22.214;2022-12-07T05:51:13;32.27;;;18.93;;
21802;SDS011;18591;47.080;22.214;2022-12-07T05:53:16;39.67;;;21.83;;
21802;SDS011;18591;47.080;22.214;2022-12-07T05:55:23;37.07;;;19.03;;
21802;SDS011;18591;47.080;22.214;2022-12-07T05:57:28;35.47;;;19.37;;
21802;SDS011;18591;47.080;22.214;2022-12-07T05:59:30;32.87;;;17.33;;
21802;SDS011;18591;47.080;22.214;2022-12-07T06:01:32;30.53;;;18.93;;
21802;SDS011;18591;47.080;22.214;2022-12-07T06:03:34;41.30;;;21.07;;
21802;SDS011;18591;47.080;22.214;2022-12-07T06:05:37;50.33;;;26.40;;
21802;SDS011;18591;47.080;22.214;2022-12-07T06:07:39;36.80;;;21.03;;
21802;SDS011;18591;47.080;22.214;2022-12-07T06:09:41;27.67;;;16.13;;
21802;SDS011;18591;47.080;22.214;2022-12-07T06:11:44;33.43;;;19.63;;
21802;SDS011;18591;47.080;22.214;2022-12-07T06:14:05;35.63;;;20.20;;
21802;SDS011;18591;47.080;22.214;2022-12-07T06:16:07;34.53;;;20.73;;
21802;SDS011;18591;47.080;22.214;2022-12-07T06:18:09;31.80;;;20.53;;
21802;SDS011;18591;47.080;22.214;2022-12-07T06:20:11;48.27;;;28.33;;
21802;SDS011;18591;47.080;22.214;2022-12-07T06:22:15;42.37;;;27.63;;
21802;SDS011;18591;47.080;22.214;2022-12-07T06:24:17;36.20;;;23.73;;
21802;SDS011;18591;47.080;22.214;2022-12-07T06:26:20;37.80;;;24.10;;
21802;SDS011;18591;47.080;22.214;2022-12-07T06:28:22;43.03;;;24.87;;
21802;SDS011;18591;47.080;22.214;2022-12-07T06:30:24;45.03;;;29.13;;
21802;SDS011;18591;47.080;22.214;2022-12-07T06:32:27;36.23;;;24.20;;
21802;SDS011;18591;47.080;22.214;2022-12-07T06:34:29;37.03;;;24.47;;
21802;SDS011;18591;47.080;22.214;2022-12-07T06:36:32;36.73;;;24.53;;
21802;SDS011;18591;47.080;22.214;2022-12-07T06:38:35;39.90;;;27.27;;
21802;SDS011;18591;47.080;22.214;2022-12-07T06:40:37;39.17;;;25.80;;
21802;SDS011;18591;47.080;22.214;2022-12-07T06:42:39;36.20;;;24.97;;
21802;SDS011;18591;47.080;22.214;2022-12-07T06:44:44;32.50;;;22.17;;
21802;SDS011;18591;47.080;22.214;2022-12-07T06:46:47;38.03;;;21.90;;
21802;SDS011;18591;47.080;22.214;2022-12-07T06:48:56;40.43;;;26.57;;
21802;SDS011;18591;47.080;22.214;2022-12-07T06:50:58;39.87;;;25.60;;
21802;SDS011;18591;47.080;22.214;2022-12-07T06:53:02;44.60;;;29.30;;
21802;SDS011;18591;47.080;22.214;2022-12-07T06:55:04;57.93;;;34.00;;
21802;SDS011;18591;47.080;22.214;2022-12-07T06:57:07;84.10;;;44.43;;
21802;SDS011;18591;47.080;22.214;2022-12-07T06:59:10;73.60;;;42.27;;
21802;SDS011;18591;47.080;22.214;2022-12-07T07:01:13;60.47;;;36.83;;
21802;SDS011;18591;47.080;22.214;2022-12-07T07:03:16;53.13;;;30.67;;
21802;SDS011;18591;47.080;22.214;2022-12-07T07:05:19;38.03;;;26.07;;
21802;SDS011;18591;47.080;22.214;2022-12-07T07:07:23;38.47;;;26.27;;
21802;SDS011;18591;47.080;22.214;2022-12-07T07:09:25;42.00;;;24.17;;
21802;SDS011;18591;47.080;22.214;2022-12-07T07:11:27;36.47;;;25.27;;
21802;SDS011;18591;47.080;22.214;2022-12-07T07:17:29;54.07;;;32.27;;
21802;SDS011;18591;47.080;22.214;2022-12-07T07:19:31;60.67;;;36.97;;
21802;SDS011;18591;47.080;22.214;2022-12-07T07:21:33;51.47;;;31.13;;
21802;SDS011;18591;47.080;22.214;2022-12-07T07:23:35;48.90;;;28.23;;
21802;SDS011;18591;47.080;22.214;2022-12-07T07:25:37;45.80;;;29.90;;
21802;SDS011;18591;47.080;22.214;2022-12-07T07:27:39;38.83;;;27.17;;
21802;SDS011;18591;47.080;22.214;2022-12-07T07:29:42;40.33;;;27.17;;
21802;SDS011;18591;47.080;22.214;2022-12-07T07:31:44;40.33;;;25.30;;
21802;SDS011;18591;47.080;22.214;2022-12-07T07:33:46;39.70;;;25.40;;
21802;SDS011;18591;47.080;22.214;2022-12-07T07:35:48;30.90;;;21.57;;
21802;SDS011;18591;47.080;22.214;2022-12-07T07:37:51;29.23;;;19.03;;
21802;SDS011;18591;47.080;22.214;2022-12-07T07:39:53;26.47;;;17.63;;
21802;SDS011;18591;47.080;22.214;2022-12-07T07:41:55;32.23;;;16.00;;
21802;SDS011;18591;47.080;22.214;2022-12-07T07:44:00;22.90;;;16.60;;
21802;SDS011;18591;47.080;22.214;2022-12-07T07:46:03;24.37;;;14.53;;
21802;SDS011;18591;47.080;22.214;2022-12-07T07:48:07;24.77;;;15.77;;
21802;SDS011;18591;47.080;22.214;2022-12-07T07:50:10;24.67;;;17.43;;
21802;SDS011;18591;47.080;22.214;2022-12-07T07:52:13;26.37;;;17.47;;
21802;SDS011;18591;47.080;22.214;2022-12-07T07:54:15;26.50;;;17.80;;
21802;SDS011;18591;47.080;22.214;2022-12-07T07:56:17;31.70;;;17.83;;
21802;SDS011;18591;47.080;22.214;2022-12-07T07:58:20;29.33;;;17.93;;
21802;SDS011;18591;47.080;22.214;2022-12-07T08:00:22;23.57;;;16.93;;
21802;SDS011;18591;47.080;22.214;2022-12-07T08:02:25;24.50;;;15.10;;
21802;SDS011;18591;47.080;22.214;2022-12-07T08:04:30;21.10;;;14.97;;
21802;SDS011;18591;47.080;22.214;2022-12-07T08:06:33;16.83;;;12.60;;
21802;SDS011;18591;47.080;22.214;2022-12-07T08:08:36;17.80;;;12.27;;
21802;SDS011;18591;47.080;22.214;2022-12-07T08:10:38;16.53;;;12.77;;
21802;SDS011;18591;47.080;22.214;2022-12-07T08:12:41;14.23;;;11.17;;
21802;SDS011;18591;47.080;22.214;2022-12-07T08:15:03;16.83;;;11.23;;
21802;SDS011;18591;47.080;22.214;2022-12-07T08:17:05;17.47;;;10.53;;
21802;SDS011;18591;47.080;22.214;2022-12-07T08:19:10;15.63;;;10.13;;
21802;SDS011;18591;47.080;22.214;2022-12-07T08:21:13;15.17;;;10.60;;
21802;SDS011;18591;47.080;22.214;2022-12-07T08:23:18;13.53;;;10.20;;
21802;SDS011;18591;47.080;22.214;2022-12-07T08:25:28;14.73;;;10.20;;
21802;SDS011;18591;47.080;22.214;2022-12-07T08:27:30;15.40;;;10.63;;
21802;SDS011;18591;47.080;22.214;2022-12-07T08:29:32;24.73;;;12.30;;
21802;SDS011;18591;47.080;22.214;2022-12-07T08:31:35;15.87;;;11.40;;
21802;SDS011;18591;47.080;22.214;2022-12-07T08:33:38;15.63;;;11.33;;
21802;SDS011;18591;47.080;22.214;2022-12-07T08:35:41;18.07;;;11.73;;
21802;SDS011;18591;47.080;22.214;2022-12-07T08:37:43;15.60;;;11.70;;
21802;SDS011;18591;47.080;22.214;2022-12-07T08:39:45;15.80;;;12.10;;
21802;SDS011;18591;47.080;22.214;2022-12-07T08:41:48;19.00;;;12.30;;
21802;SDS011;18591;47.080;22.214;2022-12-07T08:43:51;21.23;;;13.13;;
21802;SDS011;18591;47.080;22.214;2022-12-07T08:49:12;16.87;;;11.60;;
21802;SDS011;18591;47.080;22.214;2022-12-07T08:51:17;20.10;;;12.70;;
21802;SDS011;18591;47.080;22.214;2022-12-07T08:53:20;18.70;;;11.57;;
21802;SDS011;18591;47.080;22.214;2022-12-07T08:55:23;16.67;;;12.07;;
21802;SDS011;18591;47.080;22.214;2022-12-07T08:57:28;18.77;;;11.80;;
21802;SDS011;18591;47.080;22.214;2022-12-07T08:59:35;19.50;;;13.60;;
21802;SDS011;18591;47.080;22.214;2022-12-07T09:01:41;24.63;;;18.00;;
21802;SDS011;18591;47.080;22.214;2022-12-07T09:03:46;28.67;;;19.90;;
21802;SDS011;18591;47.080;22.214;2022-12-07T09:05:48;33.07;;;22.87;;
21802;SDS011;18591;47.080;22.214;2022-12-07T09:07:51;29.87;;;22.50;;
21802;SDS011;18591;47.080;22.214;2022-12-07T09:10:03;27.73;;;20.00;;
21802;SDS011;18591;47.080;22.214;2022-12-07T09:12:06;30.10;;;20.70;;
21802;SDS011;18591;47.080;22.214;2022-12-07T09:14:08;27.07;;;20.17;;
21802;SDS011;18591;47.080;22.214;2022-12-07T09:16:10;28.17;;;19.93;;
21802;SDS011;18591;47.080;22.214;2022-12-07T09:18:13;30.80;;;21.70;;
21802;SDS011;18591;47.080;22.214;2022-12-07T09:20:15;28.33;;;20.70;;
21802;SDS011;18591;47.080;22.214;2022-12-07T09:22:17;23.10;;;17.87;;
21802;SDS011;18591;47.080;22.214;2022-12-07T09:24:19;25.50;;;19.17;;
21802;SDS011;18591;47.080;22.214;2022-12-07T09:26:21;22.23;;;16.77;;
21802;SDS011;18591;47.080;22.214;2022-12-07T09:28:24;22.73;;;15.63;;
21802;SDS011;18591;47.080;22.214;2022-12-07T09:30:26;21.77;;;15.53;;
21802;SDS011;18591;47.080;22.214;2022-12-07T09:32:29;18.33;;;14.57;;
21802;SDS011;18591;47.080;22.214;2022-12-07T09:34:31;20.40;;;15.30;;
21802;SDS011;18591;47.080;22.214;2022-12-07T09:36:34;21.80;;;16.00;;
21802;SDS011;18591;47.080;22.214;2022-12-07T09:38:36;27.83;;;19.67;;
21802;SDS011;18591;47.080;22.214;2022-12-07T09:40:38;29.07;;;22.27;;
21802;SDS011;18591;47.080;22.214;2022-12-07T09:42:42;30.63;;;21.70;;
21802;SDS011;18591;47.080;22.214;2022-12-07T09:44:50;31.80;;;23.50;;
21802;SDS011;18591;47.080;22.214;2022-12-07T09:46:52;33.83;;;23.87;;
21802;SDS011;18591;47.080;22.214;2022-12-07T09:48:55;33.80;;;24.07;;
21802;SDS011;18591;47.080;22.214;2022-12-07T09:51:00;31.93;;;22.03;;
21802;SDS011;18591;47.080;22.214;2022-12-07T09:53:08;28.60;;;20.40;;
21802;SDS011;18591;47.080;22.214;2022-12-07T09:55:18;26.97;;;19.23;;
21802;SDS011;18591;47.080;22.214;2022-12-07T09:57:28;25.63;;;16.73;;
21802;SDS011;18591;47.080;22.214;2022-12-07T09:59:33;26.17;;;17.87;;
21802;SDS011;18591;47.080;22.214;2022-12-07T10:01:38;28.03;;;21.13;;
21802;SDS011;18591;47.080;22.214;2022-12-07T10:04:01;17.70;;;12.40;;
21802;SDS011;18591;47.080;22.214;2022-12-07T10:06:23;10.60;;;7.87;;
21802;SDS011;18591;47.080;22.214;2022-12-07T10:08:25;8.30;;;7.37;;
21802;SDS011;18591;47.080;22.214;2022-12-07T10:10:31;10.43;;;7.83;;
21802;SDS011;18591;47.080;22.214;2022-12-07T10:12:55;9.57;;;7.83;;
21802;SDS011;18591;47.080;22.214;2022-12-07T10:15:01;8.30;;;6.80;;
21802;SDS011;18591;47.080;22.214;2022-12-07T10:17:26;9.50;;;8.00;;
21802;SDS011;18591;47.080;22.214;2022-12-07T10:19:31;8.90;;;7.50;;
21802;SDS011;18591;47.080;22.214;2022-12-07T10:21:37;7.63;;;6.37;;
21802;SDS011;18591;47.080;22.214;2022-12-07T10:23:58;7.30;;;5.87;;
21802;SDS011;18591;47.080;22.214;2022-12-07T10:26:37;8.30;;;6.70;;
21802;SDS011;18591;47.080;22.214;2022-12-07T10:28:49;9.97;;;8.10;;
21802;SDS011;18591;47.080;22.214;2022-12-07T10:33:35;46.47;;;27.30;;
21802;SDS011;18591;47.080;22.214;2022-12-07T10:35:51;271.00;;;132.40;;
21802;SDS011;18591;47.080;22.214;2022-12-07T10:37:54;260.67;;;153.00;;
21802;SDS011;18591;47.080;22.214;2022-12-07T10:39:59;198.83;;;131.93;;
21802;SDS011;18591;47.080;22.214;2022-12-07T10:42:02;117.87;;;82.53;;
21802;SDS011;18591;47.080;22.214;2022-12-07T10:44:07;71.90;;;52.77;;
21802;SDS011;18591;47.080;22.214;2022-12-07T10:46:29;55.37;;;38.83;;
21802;SDS011;18591;47.080;22.214;2022-12-07T10:53:38;26.40;;;20.57;;
21802;SDS011;18591;47.080;22.214;2022-12-07T10:56:07;15.90;;;13.20;;
21802;SDS011;18591;47.080;22.214;2022-12-07T11:00:39;20.20;;;15.77;;
21802;SDS011;18591;47.080;22.214;2022-12-07T11:05:24;11.07;;;9.13;;
21802;SDS011;18591;47.080;22.214;2022-12-07T11:14:28;17.63;;;12.93;;
21802;SDS011;18591;47.080;22.214;2022-12-07T11:16:50;11.33;;;9.33;;
21802;SDS011;18591;47.080;22.214;2022-12-07T11:21:35;20.13;;;14.37;;
21802;SDS011;18591;47.080;22.214;2022-12-07T11:31:41;12.07;;;9.50;;
21802;SDS011;18591;47.080;22.214;2022-12-07T11:34:08;8.40;;;6.67;;
21802;SDS011;18591;47.080;22.214;2022-12-07T11:38:44;7.53;;;6.20;;
21802;SDS011;18591;47.080;22.214;2022-12-07T11:40:55;6.47;;;5.30;;
21802;SDS011;18591;47.080;22.214;2022-12-07T11:45:34;8.50;;;6.83;;
21802;SDS011;18591;47.080;22.214;2022-12-07T11:51:57;10.77;;;8.63;;
21802;SDS011;18591;47.080;22.214;2022-12-07T11:54:03;11.30;;;9.67;;
21802;SDS011;18591;47.080;22.214;2022-12-07T11:56:17;10.27;;;9.00;;
21802;SDS011;18591;47.080;22.214;2022-12-07T12:00:44;9.80;;;7.77;;
21802;SDS011;18591;47.080;22.214;2022-12-07T12:02:58;10.83;;;8.70;;
21802;SDS011;18591;47.080;22.214;2022-12-07T12:07:22;11.13;;;8.93;;
21802;SDS011;18591;47.080;22.214;2022-12-07T12:09:54;10.17;;;8.40;;
21802;SDS011;18591;47.080;22.214;2022-12-07T12:21:36;28.63;;;24.63;;
21802;SDS011;18591;47.080;22.214;2022-12-07T12:23:41;16.77;;;14.97;;
21802;SDS011;18591;47.080;22.214;2022-12-07T12:25:56;9.33;;;8.43;;
21802;SDS011;18591;47.080;22.214;2022-12-07T12:28:01;9.67;;;8.70;;
21802;SDS011;18591;47.080;22.214;2022-12-07T12:30:06;6.87;;;6.20;;
21802;SDS011;18591;47.080;22.214;2022-12-07T12:32:39;5.70;;;5.20;;
21802;SDS011;18591;47.080;22.214;2022-12-07T12:37:14;5.80;;;5.20;;
21802;SDS011;18591;47.080;22.214;2022-12-07T12:39:35;5.77;;;5.07;;
21802;SDS011;18591;47.080;22.214;2022-12-07T12:45:50;20.93;;;11.80;;
21802;SDS011;18591;47.080;22.214;2022-12-07T12:48:35;14.07;;;8.93;;
21802;SDS011;18591;47.080;22.214;2022-12-07T12:50:39;8.33;;;6.40;;
21802;SDS011;18591;47.080;22.214;2022-12-07T12:54:59;5.20;;;4.27;;
21802;SDS011;18591;47.080;22.214;2022-12-07T13:03:50;5.03;;;4.20;;
21802;SDS011;18591;47.080;22.214;2022-12-07T13:08:35;5.03;;;4.53;;
21802;SDS011;18591;47.080;22.214;2022-12-07T13:10:43;5.63;;;4.50;;
21802;SDS011;18591;47.080;22.214;2022-12-07T13:21:44;5.80;;;5.00;;
21802;SDS011;18591;47.080;22.214;2022-12-07T13:25:51;10.63;;;8.07;;
21802;SDS011;18591;47.080;22.214;2022-12-07T13:27:59;14.60;;;9.87;;
21802;SDS011;18591;47.080;22.214;2022-12-07T13:30:09;13.63;;;9.73;;
21802;SDS011;18591;47.080;22.214;2022-12-07T13:32:23;16.33;;;11.43;;
21802;SDS011;18591;47.080;22.214;2022-12-07T13:36:38;19.13;;;12.73;;
21802;SDS011;18591;47.080;22.214;2022-12-07T13:38:47;21.67;;;15.03;;
21802;SDS011;18591;47.080;22.214;2022-12-07T13:41:04;22.40;;;16.27;;
21802;SDS011;18591;47.080;22.214;2022-12-07T13:43:13;41.73;;;28.00;;
21802;SDS011;18591;47.080;22.214;2022-12-07T13:45:20;36.13;;;26.53;;
21802;SDS011;18591;47.080;22.214;2022-12-07T13:47:49;32.70;;;24.40;;
21802;SDS011;18591;47.080;22.214;2022-12-07T13:49:56;31.27;;;22.27;;
21802;SDS011;18591;47.080;22.214;2022-12-07T13:54:26;30.83;;;22.17;;
21802;SDS011;18591;47.080;22.214;2022-12-07T13:56:32;25.93;;;19.80;;
21802;SDS011;18591;47.080;22.214;2022-12-07T13:58:36;26.90;;;20.77;;
21802;SDS011;18591;47.080;22.214;2022-12-07T14:00:40;34.27;;;25.13;;
21802;SDS011;18591;47.080;22.214;2022-12-07T14:05:25;42.90;;;30.43;;
21802;SDS011;18591;47.080;22.214;2022-12-07T14:07:29;53.27;;;37.63;;
21802;SDS011;18591;47.080;22.214;2022-12-07T14:09:37;53.63;;;38.10;;
21802;SDS011;18591;47.080;22.214;2022-12-07T14:11:40;59.97;;;41.17;;
21802;SDS011;18591;47.080;22.214;2022-12-07T14:16:00;75.93;;;50.40;;
21802;SDS011;18591;47.080;22.214;2022-12-07T14:18:04;76.83;;;52.27;;
21802;SDS011;18591;47.080;22.214;2022-12-07T14:20:27;72.73;;;49.40;;
21802;SDS011;18591;47.080;22.214;2022-12-07T14:22:42;77.30;;;51.37;;
21802;SDS011;18591;47.080;22.214;2022-12-07T14:24:44;86.20;;;58.13;;
21802;SDS011;18591;47.080;22.214;2022-12-07T14:26:50;66.03;;;45.43;;
21802;SDS011;18591;47.080;22.214;2022-12-07T14:28:52;59.90;;;41.87;;
21802;SDS011;18591;47.080;22.214;2022-12-07T14:31:16;53.83;;;35.53;;
21802;SDS011;18591;47.080;22.214;2022-12-07T14:33:30;43.70;;;32.03;;